»·PEaware :: N601TJ KLAX-KSFO

N601TJ :: KLAX-KSFO

FLIGHT INFORMATION

Flight Status: Arrived
Operator: Privately registered:
United States
More flights under this callsign
Pilot: Sanjiv Singh (4490)
Aircraft: MCDONNELL-DOUGLAS DC-6/B LIFTMASTER
(DC6)
More flights by this aircraft type
Origin: KLAX Los Angeles Intl
United States
Destination: KSFO San Francisco Intl
United States
More flights between these airports :: More routes between these airports
Route: VTU6 RZS J501 BSR BSR3
File this flight plan on PilotEdge
Remarks:
Altitude:
(Current/Filed)
20,000ft
Speed:
(Current/Filed)
240kts
Departed: 06-Nov-16 08:28 AM
Arrived: 06-Nov-16 10:03 AM
Distance/Time
Traveled:
294nm/1:34
Distance/Time
To Go:
Arrived

Flight Plot

Page will automatically refresh every two minutes.

Filed plans courtesy of Ian Elchitz and SimRoutes.com


Map Options




Map Legend


Flown Route
Filed Route
Departure Airport
Arrival Airport
Navaid (VOR, NDB)
Fix

Horizontal Profiles

Position Reports

Time Latitude Longitude Heading Altitude Ground
Speed
06-Nov-16 07:30 33.935418 -118.380376 80 134ft 0kts
06-Nov-16 07:31 33.935418 -118.380376 80 134ft 0kts
06-Nov-16 07:32 33.935418 -118.380376 80 134ft 0kts
06-Nov-16 07:33 33.935418 -118.380376 80 134ft 0kts
06-Nov-16 07:34 33.935418 -118.380376 80 134ft 0kts
06-Nov-16 07:35 33.935418 -118.380376 80 134ft 0kts
06-Nov-16 07:36 33.935418 -118.380376 80 134ft 0kts
06-Nov-16 07:37 33.935418 -118.380376 80 134ft 0kts
06-Nov-16 07:38 33.935418 -118.380376 80 134ft 0kts
06-Nov-16 07:39 33.935418 -118.380376 80 134ft 0kts
06-Nov-16 07:40 33.935418 -118.380376 80 134ft 0kts
06-Nov-16 07:41 33.935418 -118.380376 80 134ft 0kts
06-Nov-16 07:42 33.935418 -118.380376 80 134ft 0kts
06-Nov-16 07:43 33.935418 -118.380376 80 134ft 0kts
06-Nov-16 07:44 33.935418 -118.380376 80 134ft 0kts
06-Nov-16 07:45 33.935418 -118.380376 80 134ft 0kts
06-Nov-16 07:46 33.935418 -118.380376 80 134ft 0kts
06-Nov-16 07:47 33.935418 -118.380376 80 134ft 0kts
06-Nov-16 07:48 33.935418 -118.380376 80 134ft 0kts
06-Nov-16 07:49 33.935418 -118.380376 80 134ft 0kts
06-Nov-16 07:50 33.935418 -118.380376 80 134ft 0kts
06-Nov-16 07:51 33.935418 -118.380376 80 134ft 0kts
06-Nov-16 07:52 33.935418 -118.380376 80 134ft 0kts
06-Nov-16 07:53 33.935418 -118.380376 80 134ft 0kts
06-Nov-16 07:54 33.935418 -118.380376 80 134ft 0kts
06-Nov-16 07:55 33.935418 -118.380376 80 134ft 0kts
06-Nov-16 07:56 33.935418 -118.380376 80 134ft 0kts
06-Nov-16 07:57 33.935418 -118.380376 80 134ft 0kts
06-Nov-16 07:58 33.935418 -118.380376 80 134ft 0kts
06-Nov-16 07:59 33.935418 -118.380376 80 134ft 0kts
06-Nov-16 08:00 33.935418 -118.380376 80 134ft 0kts
06-Nov-16 08:01 33.935418 -118.380376 80 134ft 0kts
06-Nov-16 08:02 33.935418 -118.380376 80 134ft 0kts
06-Nov-16 08:03 33.935418 -118.380376 80 134ft 0kts
06-Nov-16 08:04 33.935418 -118.380376 80 134ft 0kts
06-Nov-16 08:05 33.935418 -118.380376 80 134ft 0kts
06-Nov-16 08:06 33.935418 -118.380376 80 134ft 0kts
06-Nov-16 08:07 33.935418 -118.380376 80 134ft 0kts
06-Nov-16 08:08 33.935418 -118.380376 80 134ft 0kts
06-Nov-16 08:09 33.935418 -118.380376 80 134ft 0kts
06-Nov-16 08:10 33.935418 -118.380376 80 134ft 0kts
06-Nov-16 08:11 33.935418 -118.380376 80 134ft 0kts
06-Nov-16 08:12 33.935418 -118.380376 80 134ft 0kts
06-Nov-16 08:13 33.935418 -118.380376 80 134ft 0kts
06-Nov-16 08:14 33.935390 -118.380575 80 134ft 1kts
06-Nov-16 08:15 33.935331 -118.380723 170 134ft 1kts
06-Nov-16 08:16 33.935029 -118.381231 350 134ft 2kts
06-Nov-16 08:17 33.936126 -118.381581 297 134ft 5kts
06-Nov-16 08:18 33.936397 -118.382747 352 134ft 0kts
06-Nov-16 08:19 33.936397 -118.382747 352 134ft 0kts
06-Nov-16 08:20 33.937279 -118.383164 280 134ft 6kts
06-Nov-16 08:21 33.937282 -118.383333 263 134ft 0kts
06-Nov-16 08:22 33.935152 -118.402814 263 432ft 114kts
06-Nov-16 08:23 33.930514 -118.442344 263 1709ft 121kts
06-Nov-16 08:24 33.925003 -118.482150 263 2933ft 125kts
06-Nov-16 08:25 33.918465 -118.525483 263 3866ft 144kts
06-Nov-16 08:26 33.910296 -118.582030 263 4378ft 191kts
06-Nov-16 08:27 33.901369 -118.644038 263 5138ft 184kts
06-Nov-16 08:28 33.893008 -118.701519 262 5804ft 179kts
06-Nov-16 08:29 33.884961 -118.760099 263 6507ft 175kts
06-Nov-16 08:30 33.877325 -118.817285 263 7231ft 171kts
06-Nov-16 08:31 33.871290 -118.864257 263 7847ft 168kts
06-Nov-16 08:32 33.863761 -118.929068 263 8663ft 168kts
06-Nov-16 08:33 33.858479 -118.975742 263 9231ft 169kts
06-Nov-16 08:34 33.852352 -119.030434 263 9893ft 169kts
06-Nov-16 08:35 33.862231 -119.080111 321 10520ft 173kts
06-Nov-16 08:36 33.900320 -119.114357 318 11248ft 169kts
06-Nov-16 08:37 33.937137 -119.149828 316 11929ft 169kts
06-Nov-16 08:38 33.973377 -119.186341 315 12590ft 170kts
06-Nov-16 08:39 34.009116 -119.223420 314 13236ft 171kts
06-Nov-16 08:40 34.045003 -119.261385 313 13880ft 171kts
06-Nov-16 08:41 34.080884 -119.299855 313 14515ft 172kts
06-Nov-16 08:42 34.115479 -119.337152 313 15111ft 173kts
06-Nov-16 08:43 34.151468 -119.376082 312 15715ft 174kts
06-Nov-16 08:44 34.187698 -119.415523 312 16310ft 175kts
06-Nov-16 08:45 34.223974 -119.455194 312 16893ft 176kts
06-Nov-16 08:46 34.259478 -119.494139 312 17456ft 177kts
06-Nov-16 08:47 34.295853 -119.534155 312 18024ft 177kts
06-Nov-16 08:48 34.332421 -119.574471 312 18576ft 178kts
06-Nov-16 08:49 34.368562 -119.614736 310 19174ft 175kts
06-Nov-16 08:50 34.403390 -119.655207 312 19729ft 175kts
06-Nov-16 08:51 34.440158 -119.695609 313 20134ft 183kts
06-Nov-16 08:52 34.480964 -119.739884 313 20133ft 208kts
06-Nov-16 08:53 34.525998 -119.788667 313 20131ft 225kts
06-Nov-16 08:54 34.573827 -119.840831 313 20128ft 236kts
06-Nov-16 08:55 34.622765 -119.894244 314 20156ft 242kts
06-Nov-16 08:56 34.673723 -119.949954 314 20152ft 250kts
06-Nov-16 08:57 34.725664 -120.006833 314 20154ft 255kts
06-Nov-16 08:58 34.778624 -120.064918 313 20151ft 257kts
06-Nov-16 08:59 34.831870 -120.123459 313 20153ft 258kts
06-Nov-16 09:00 34.884998 -120.181967 313 20153ft 258kts
06-Nov-16 09:01 34.938447 -120.240936 313 20153ft 259kts
06-Nov-16 09:02 34.991691 -120.299781 313 20153ft 258kts
06-Nov-16 09:03 35.045036 -120.358854 313 20153ft 258kts
06-Nov-16 09:04 35.098341 -120.417988 313 20149ft 258kts
06-Nov-16 09:05 35.149089 -120.474397 313 20149ft 258kts
06-Nov-16 09:06 35.202208 -120.533548 313 20149ft 258kts
06-Nov-16 09:07 35.255037 -120.592479 312 20148ft 258kts
06-Nov-16 09:08 35.307530 -120.651141 312 20149ft 257kts
06-Nov-16 09:09 35.360432 -120.709675 312 20155ft 258kts
06-Nov-16 09:10 35.413303 -120.768723 312 20155ft 258kts
06-Nov-16 09:11 35.466386 -120.828293 312 20190ft 256kts
06-Nov-16 09:12 35.518667 -120.887136 312 20200ft 257kts
06-Nov-16 09:13 35.571351 -120.946555 312 20199ft 257kts
06-Nov-16 09:14 35.624121 -121.006194 312 20199ft 257kts
06-Nov-16 09:15 35.676575 -121.065578 312 20199ft 257kts
06-Nov-16 09:16 35.728290 -121.124236 312 20198ft 257kts
06-Nov-16 09:17 35.780593 -121.183670 312 20198ft 256kts
06-Nov-16 09:18 35.832942 -121.243273 312 20197ft 256kts
06-Nov-16 09:19 35.884891 -121.302534 312 20197ft 255kts
06-Nov-16 09:20 35.936937 -121.362013 312 20196ft 254kts
06-Nov-16 09:21 35.988692 -121.421275 312 20178ft 254kts
06-Nov-16 09:22 36.040313 -121.480490 312 20177ft 253kts
06-Nov-16 09:23 36.091890 -121.539769 312 20177ft 253kts
06-Nov-16 09:24 36.140351 -121.595573 312 20176ft 253kts
06-Nov-16 09:25 36.193498 -121.653032 319 20177ft 256kts
06-Nov-16 09:26 36.252129 -121.703293 319 20183ft 257kts
06-Nov-16 09:27 36.310557 -121.753802 319 20183ft 256kts
06-Nov-16 09:28 36.368806 -121.804366 318 20182ft 256kts
06-Nov-16 09:29 36.426920 -121.854951 319 20182ft 255kts
06-Nov-16 09:30 36.480102 -121.885683 339 19895ft 262kts
06-Nov-16 09:31 36.562244 -121.909013 340 19354ft 260kts
06-Nov-16 09:32 36.620914 -121.925403 340 18962ft 259kts
06-Nov-16 09:33 36.691657 -121.945107 340 18337ft 263kts
06-Nov-16 09:34 36.764968 -121.965516 340 17412ft 273kts
06-Nov-16 09:35 36.839913 -121.986401 340 16407ft 279kts
06-Nov-16 09:36 36.915689 -122.007545 341 15453ft 280kts
06-Nov-16 09:37 36.992828 -122.029138 341 14081ft 289kts
06-Nov-16 09:38 37.071791 -122.050129 342 12768ft 290kts
06-Nov-16 09:39 37.146490 -122.069875 342 11546ft 288kts
06-Nov-16 09:40 37.223999 -122.090387 343 10283ft 284kts
06-Nov-16 09:41 37.299936 -122.110095 343 9052ft 281kts
06-Nov-16 09:42 37.375488 -122.129015 343 7845ft 275kts
06-Nov-16 09:43 37.443341 -122.110340 61 6582ft 278kts
06-Nov-16 09:44 37.427152 -122.042714 124 5975ft 170kts
06-Nov-16 09:45 37.437878 -121.997913 351 5986ft 161kts
06-Nov-16 09:46 37.482459 -122.009352 348 5136ft 180kts
06-Nov-16 09:47 37.529440 -122.005986 358 3810ft 148kts
06-Nov-16 09:48 37.554071 -122.032424 258 3377ft 156kts
06-Nov-16 09:49 37.526563 -122.079550 231 3126ft 163kts
06-Nov-16 09:50 37.523040 -122.136522 291 3102ft 172kts
06-Nov-16 09:51 37.546773 -122.186234 284 2909ft 174kts
06-Nov-16 09:52 37.565333 -122.241759 305 2369ft 168kts
06-Nov-16 09:53 37.585275 -122.288814 299 969ft 135kts
06-Nov-16 09:54 37.600805 -122.326412 297 577ft 115kts
06-Nov-16 09:55 37.614520 -122.359721 298 36ft 99kts
06-Nov-16 09:56 37.622589 -122.378671 301 22ft 41kts
06-Nov-16 09:57 37.624902 -122.381260 356 22ft 1kts
06-Nov-16 09:58 37.626155 -122.383065 351 22ft 13kts
06-Nov-16 09:59 37.627097 -122.381052 116 22ft 0kts

Navigation Log

Ident Type Via Name
1. KLAX Airport Direct Los Angeles International
2. VTU Navaid VTU5 Ventura Oxnard (108.20)
3. RZS Navaid VTU5 San Marcus Santa Barbara (114.90)
4. PEGRS Fix J501
5. ZONAL Fix J501
6. BSR Navaid BSR2 Big Sur (114.00)
7. CARME Fix BSR2
8. ANJEE Fix BSR2
9. SKUNK Fix BSR2
10. BOLDR Fix BSR2
11. MENLO Fix BSR2
12. KSFO Airport BSR2 San Francisco Intl